Time;durP1;ratioP1;P1;durP2;ratioP2;P2;SDS_P1;SDS_P2;PMS_P1;PMS_P2;Temp;Humidity;BMP_temperature;BMP_pressure;BME280_temperature;BME280_humidity;BME280_pressure;Samples;Min_cycle;Max_cycle;Signal;HPM_P1;HPM_P2
2021/10/27 00:00:29;;;;;;;136.18;74.38;;;5.90;99.90;;;;;;5057030;28;20542;-70
2021/10/27 00:02:55;;;;;;;122.40;72.40;;;5.90;99.90;;;;;;5075136;28;20028;-71
2021/10/27 00:05:21;;;;;;;139.57;76.22;;;5.90;99.90;;;;;;5075051;28;20052;-70
2021/10/27 00:07:47;;;;;;;140.82;74.40;;;5.90;99.90;;;;;;5075119;28;20032;-71
2021/10/27 00:10:13;;;;;;;140.57;74.80;;;5.80;99.90;;;;;;5056622;28;20060;-72
2021/10/27 00:12:40;;;;;;;138.23;78.32;;;5.80;99.90;;;;;;5056689;28;20115;-69
2021/10/27 00:15:09;;;;;;;135.05;76.80;;;5.80;99.90;;;;;;5056869;28;20520;-68
2021/10/27 00:17:35;;;;;;;124.78;73.40;;;5.80;99.90;;;;;;5056734;28;20074;-68
2021/10/27 00:20:03;;;;;;;123.18;72.03;;;5.80;99.90;;;;;;5074715;28;20089;-70
2021/10/27 00:22:29;;;;;;;138.18;75.20;;;5.80;99.90;;;;;;5074442;28;20457;-70
2021/10/27 00:24:55;;;;;;;132.93;76.30;;;5.80;99.90;;;;;;5074937;28;20095;-71
2021/10/27 00:27:21;;;;;;;134.27;75.70;;;5.70;99.90;;;;;;5074684;28;20021;-71
2021/10/27 00:29:47;;;;;;;133.45;73.88;;;5.70;99.90;;;;;;5074590;28;20426;-70
2021/10/27 00:32:13;;;;;;;127.85;73.28;;;5.70;99.90;;;;;;5056549;28;20491;-72
2021/10/27 00:34:39;;;;;;;117.68;69.40;;;5.70;99.90;;;;;;5074763;28;20067;-71
2021/10/27 00:37:05;;;;;;;114.72;72.00;;;5.70;99.90;;;;;;5056456;28;20093;-71
2021/10/27 00:39:32;;;;;;;124.55;73.57;;;5.60;99.90;;;;;;5056311;28;20028;-71
2021/10/27 00:41:58;;;;;;;127.60;73.03;;;5.60;99.90;;;;;;5074362;28;20025;-70
2021/10/27 00:44:25;;;;;;;120.93;72.10;;;5.60;99.90;;;;;;5056308;28;20025;-73
2021/10/27 00:47:02;;;;;;;121.88;68.40;;;5.60;99.90;;;;;;5056220;28;20016;-71
2021/10/27 00:49:29;;;;;;;122.55;71.65;;;5.60;99.90;;;;;;5056232;28;20020;-73
2021/10/27 00:51:57;;;;;;;114.85;69.10;;;5.60;99.90;;;;;;5056188;28;20021;-69
2021/10/27 00:54:23;;;;;;;118.15;70.90;;;5.60;99.90;;;;;;5074085;28;20627;-70
2021/10/27 00:56:52;;;;;;;107.57;66.70;;;5.60;99.90;;;;;;5074019;28;20108;-71
2021/10/27 00:59:19;;;;;;;114.30;69.35;;;5.60;99.90;;;;;;5073997;28;20104;-71
2021/10/27 01:01:45;;;;;;;118.93;70.68;;;5.60;99.90;;;;;;5073101;28;20029;-72
2021/10/27 01:04:11;;;;;;;123.72;71.63;;;5.70;99.90;;;;;;5055938;28;20086;-73
2021/10/27 01:06:37;;;;;;;131.25;72.18;;;5.70;99.90;;;;;;5073613;28;20423;-73
2021/10/27 01:09:04;;;;;;;136.27;72.80;;;5.60;99.90;;;;;;5073604;28;20105;-71
2021/10/27 01:11:30;;;;;;;124.05;69.88;;;5.60;99.90;;;;;;5073735;28;20032;-72
2021/10/27 01:13:56;;;;;;;116.45;68.85;;;5.70;99.90;;;;;;5055728;28;20067;-72
2021/10/27 01:16:22;;;;;;;129.23;70.35;;;5.60;99.90;;;;;;5073942;28;20476;-72
2021/10/27 01:18:53;;;;;;;118.38;70.82;;;5.60;99.90;;;;;;5055684;28;20077;-72
2021/10/27 01:21:21;;;;;;;117.38;66.93;;;5.60;99.90;;;;;;5073358;28;20377;-69
2021/10/27 01:23:47;;;;;;;108.03;64.13;;;5.60;99.90;;;;;;5055597;28;20115;-70
2021/10/27 01:26:14;;;;;;;107.72;64.90;;;5.60;99.90;;;;;;5073516;28;20115;-70
2021/10/27 01:28:41;;;;;;;114.13;66.82;;;5.60;99.90;;;;;;5055546;28;20046;-68
2021/10/27 01:31:08;;;;;;;106.68;62.55;;;5.60;99.90;;;;;;5055427;28;20081;-71
2021/10/27 01:33:36;;;;;;;103.65;62.03;;;5.60;99.90;;;;;;5073356;28;20025;-70
2021/10/27 01:36:03;;;;;;;105.00;63.30;;;5.60;99.90;;;;;;5073358;28;20025;-72
2021/10/27 01:38:30;;;;;;;104.93;63.08;;;5.60;99.90;;;;;;5073387;28;20158;-71
2021/10/27 01:40:56;;;;;;;105.78;64.05;;;5.60;99.90;;;;;;5073332;28;20074;-73
2021/10/27 01:43:22;;;;;;;106.85;59.15;;;5.70;99.90;;;;;;5073300;28;20111;-70
2021/10/27 01:45:48;;;;;;;96.72;59.45;;;5.80;99.90;;;;;;5073211;28;20029;-68
2021/10/27 01:48:14;;;;;;;95.72;58.08;;;5.90;99.90;;;;;;5055244;28;20498;-69
2021/10/27 01:50:41;;;;;;;102.68;57.63;;;5.90;99.90;;;;;;5055216;28;20037;-68
2021/10/27 01:53:08;;;;;;;90.28;56.30;;;5.90;99.90;;;;;;5073191;28;20020;-68
2021/10/27 01:55:34;;;;;;;92.78;55.92;;;5.90;99.90;;;;;;5055153;28;20082;-68
2021/10/27 01:58:00;;;;;;;92.15;55.03;;;5.90;99.90;;;;;;5055154;28;20746;-68
2021/10/27 02:00:25;;;;;;;89.35;56.60;;;5.90;99.90;;;;;;5073059;28;20050;-69
2021/10/27 02:02:51;;;;;;;89.88;54.75;;;5.90;99.90;;;;;;5055054;28;20448;-70
2021/10/27 02:05:17;;;;;;;90.07;53.30;;;6.00;99.90;;;;;;5073043;28;20033;-71
2021/10/27 02:07:43;;;;;;;87.72;52.25;;;6.00;99.90;;;;;;5073283;28;20074;-69
2021/10/27 02:10:11;;;;;;;88.85;52.35;;;6.00;99.90;;;;;;5072528;28;20053;-69
2021/10/27 02:12:39;;;;;;;87.03;54.42;;;5.90;99.90;;;;;;5072767;28;20016;-71
2021/10/27 02:15:07;;;;;;;87.78;56.15;;;5.90;99.90;;;;;;5072912;28;20028;-71
2021/10/27 02:17:33;;;;;;;85.22;54.00;;;6.00;99.90;;;;;;5054811;28;20082;-70
2021/10/27 02:19:59;;;;;;;97.75;58.13;;;6.00;99.90;;;;;;5072828;28;20036;-69
2021/10/27 02:22:25;;;;;;;92.32;58.83;;;6.00;99.90;;;;;;5072852;28;20460;-69
2021/10/27 02:24:51;;;;;;;102.63;60.83;;;6.00;99.90;;;;;;5072869;28;20112;-69
2021/10/27 02:27:17;;;;;;;108.78;60.13;;;6.00;99.90;;;;;;5072801;28;20032;-69
2021/10/27 02:29:43;;;;;;;94.78;61.00;;;6.00;99.90;;;;;;5072621;28;20495;-69
2021/10/27 02:32:10;;;;;;;96.32;60.17;;;6.00;99.90;;;;;;5072800;28;20036;-68
2021/10/27 02:34:35;;;;;;;94.60;58.63;;;6.00;99.90;;;;;;5072495;28;20083;-69
2021/10/27 02:37:03;;;;;;;95.50;60.47;;;6.00;99.90;;;;;;5072475;28;20024;-72
2021/10/27 02:39:29;;;;;;;103.35;63.28;;;6.00;99.90;;;;;;5072687;28;20016;-71
2021/10/27 02:41:55;;;;;;;100.20;63.40;;;6.00;99.90;;;;;;5072700;28;20090;-72
2021/10/27 02:44:21;;;;;;;108.00;67.55;;;6.00;99.90;;;;;;5072930;28;20035;-71
2021/10/27 02:46:48;;;;;;;98.05;62.65;;;6.00;99.90;;;;;;5072650;28;20025;-68
2021/10/27 02:49:15;;;;;;;101.63;64.32;;;6.00;99.90;;;;;;5054822;28;20147;-67
2021/10/27 02:51:41;;;;;;;107.35;65.88;;;5.90;99.90;;;;;;5072556;28;20103;-70
2021/10/27 02:54:07;;;;;;;110.68;66.03;;;5.90;99.90;;;;;;5054322;28;20048;-69
2021/10/27 02:56:33;;;;;;;94.47;62.80;;;5.80;99.90;;;;;;5054471;28;20035;-71
2021/10/27 02:58:59;;;;;;;97.80;62.88;;;5.90;99.90;;;;;;5072617;28;20027;-71
2021/10/27 03:01:25;;;;;;;99.93;62.60;;;5.80;99.90;;;;;;5072438;28;20087;-72
2021/10/27 03:03:52;;;;;;;107.97;65.63;;;5.80;99.90;;;;;;5072435;28;20052;-71
2021/10/27 03:06:19;;;;;;;92.57;57.05;;;5.80;99.90;;;;;;5072310;28;20035;-69
2021/10/27 03:08:46;;;;;;;86.53;52.65;;;5.80;99.90;;;;;;5045382;28;20060;-70
2021/10/27 03:11:13;;;;;;;87.97;55.00;;;5.80;99.90;;;;;;5031264;28;20362;-70
2021/10/27 03:13:40;;;;;;;88.47;55.00;;;5.90;99.90;;;;;;5031152;28;20029;-69
2021/10/27 03:16:06;;;;;;;85.35;54.15;;;5.90;99.90;;;;;;5031160;28;20374;-71
2021/10/27 03:18:32;;;;;;;92.30;57.65;;;5.90;99.90;;;;;;5031180;28;20381;-70
2021/10/27 03:20:58;;;;;;;83.97;55.70;;;6.00;99.90;;;;;;5032276;28;20033;-69
2021/10/27 03:23:24;;;;;;;90.00;57.00;;;6.00;99.90;;;;;;5032858;28;20025;-70
2021/10/27 03:25:50;;;;;;;82.50;54.60;;;6.00;99.90;;;;;;5034580;28;20414;-70
2021/10/27 03:28:16;;;;;;;88.22;56.17;;;6.10;99.90;;;;;;5034686;28;20145;-70
2021/10/27 03:30:41;;;;;;;92.13;59.13;;;6.10;99.90;;;;;;5035541;28;20041;-69
2021/10/27 03:33:08;;;;;;;88.68;54.47;;;6.20;99.90;;;;;;5035466;28;20474;-70
2021/10/27 03:35:34;;;;;;;89.43;54.65;;;6.20;99.90;;;;;;5035781;28;20037;-70
2021/10/27 03:38:00;;;;;;;97.28;59.15;;;6.30;99.90;;;;;;5035657;28;20032;-70
2021/10/27 03:40:26;;;;;;;91.32;60.00;;;6.30;99.90;;;;;;5035663;28;20037;-71
2021/10/27 03:42:52;;;;;;;94.55;60.00;;;6.30;99.90;;;;;;5035620;28;20025;-71
2021/10/27 03:45:20;;;;;;;93.75;59.70;;;6.30;99.90;;;;;;5035333;28;20032;-72
2021/10/27 03:47:46;;;;;;;95.00;62.53;;;6.40;99.90;;;;;;5034246;28;20064;-69
2021/10/27 03:50:14;;;;;;;97.57;63.55;;;6.40;99.90;;;;;;5034240;28;20029;-71
2021/10/27 03:52:43;;;;;;;102.15;64.85;;;6.40;99.90;;;;;;5035466;28;20022;-70
2021/10/27 03:55:10;;;;;;;89.05;58.88;;;6.50;99.90;;;;;;5035350;28;20032;-71
2021/10/27 03:57:36;;;;;;;97.28;59.65;;;6.60;99.90;;;;;;5035347;28;20025;-71
2021/10/27 04:00:05;;;;;;;131.57;77.50;;;6.60;99.90;;;;;;5035292;28;20120;-69
2021/10/27 04:02:31;;;;;;;208.02;118.00;;;6.60;99.90;;;;;;5033873;28;20025;-71
2021/10/27 04:04:57;;;;;;;94.00;61.97;;;6.60;99.90;;;;;;5035201;28;20029;-72
2021/10/27 04:07:23;;;;;;;89.38;55.00;;;6.70;99.90;;;;;;5035165;28;20025;-71
2021/10/27 04:09:49;;;;;;;83.50;50.72;;;6.70;99.90;;;;;;5062866;28;20044;-71
2021/10/27 04:12:15;;;;;;;85.82;50.10;;;6.60;99.90;;;;;;5075224;28;20127;-71
2021/10/27 04:14:41;;;;;;;84.65;51.08;;;6.60;99.90;;;;;;5074969;28;20446;-71
2021/10/27 04:17:07;;;;;;;92.47;57.75;;;6.60;99.90;;;;;;5056918;28;20029;-72
2021/10/27 04:19:34;;;;;;;99.40;61.58;;;6.60;99.90;;;;;;5056841;28;20028;-69
2021/10/27 04:22:01;;;;;;;103.13;63.55;;;6.60;99.90;;;;;;5057049;28;20426;-70
2021/10/27 04:24:27;;;;;;;89.32;55.50;;;6.60;99.90;;;;;;5074701;28;20031;-71
2021/10/27 04:26:53;;;;;;;99.20;60.58;;;6.70;99.90;;;;;;5074927;28;20028;-71
2021/10/27 04:29:19;;;;;;;102.78;63.47;;;6.70;99.90;;;;;;5056612;28;20029;-71
2021/10/27 04:31:45;;;;;;;111.00;65.13;;;6.70;99.90;;;;;;5074571;28;20028;-70
2021/10/27 04:34:11;;;;;;;117.32;70.72;;;6.70;99.90;;;;;;5074687;28;20074;-70
2021/10/27 04:36:37;;;;;;;110.78;68.55;;;6.80;99.90;;;;;;5074490;28;20086;-70
2021/10/27 04:39:03;;;;;;;117.43;69.55;;;6.80;99.90;;;;;;5056524;28;20024;-70
2021/10/27 04:41:29;;;;;;;127.20;70.25;;;6.80;99.90;;;;;;5056344;28;20037;-71
2021/10/27 04:43:55;;;;;;;122.88;71.68;;;6.80;99.90;;;;;;5056045;28;20027;-69
2021/10/27 04:46:21;;;;;;;115.40;73.47;;;6.80;99.90;;;;;;5056352;28;20039;-70
2021/10/27 04:48:47;;;;;;;117.68;71.47;;;6.70;99.90;;;;;;5073942;28;20030;-68
2021/10/27 04:51:12;;;;;;;120.82;70.63;;;6.70;99.90;;;;;;5074185;28;20750;-69
2021/10/27 04:53:38;;;;;;;134.38;69.63;;;6.70;99.90;;;;;;5074436;28;20071;-69
2021/10/27 04:56:04;;;;;;;121.22;68.60;;;6.60;99.90;;;;;;5056107;28;20112;-68
2021/10/27 04:58:30;;;;;;;110.00;65.00;;;6.60;99.90;;;;;;5056093;28;20031;-69
2021/10/27 05:00:57;;;;;;;110.55;67.22;;;6.50;99.90;;;;;;5056022;28;20037;-68
2021/10/27 05:03:22;;;;;;;113.07;68.13;;;6.50;99.90;;;;;;5073976;28;20024;-69
2021/10/27 05:05:52;;;;;;;109.50;67.72;;;6.50;99.90;;;;;;5073912;28;20793;-69
2021/10/27 05:08:22;;;;;;;107.95;67.05;;;6.50;99.90;;;;;;5055582;28;20024;-70
2021/10/27 05:10:49;;;;;;;125.57;70.72;;;6.60;99.90;;;;;;5073827;28;20047;-68
2021/10/27 05:13:15;;;;;;;117.78;72.43;;;6.50;99.90;;;;;;5073729;28;20059;-70
2021/10/27 05:15:40;;;;;;;135.02;81.80;;;6.60;99.90;;;;;;5073762;28;20457;-70
2021/10/27 05:18:06;;;;;;;148.50;96.05;;;6.60;99.90;;;;;;5073879;28;20020;-70
2021/10/27 05:20:32;;;;;;;149.30;92.90;;;6.70;99.90;;;;;;5073248;28;20036;-70
2021/10/27 05:22:58;;;;;;;128.90;78.13;;;6.60;99.90;;;;;;5073217;28;20108;-71
2021/10/27 05:25:24;;;;;;;123.20;77.68;;;6.60;99.90;;;;;;5073276;28;20151;-70
2021/10/27 05:27:50;;;;;;;119.45;74.32;;;6.60;99.90;;;;;;5055500;28;20480;-71
2021/10/27 05:30:16;;;;;;;129.70;78.90;;;6.60;99.90;;;;;;5073607;28;20044;-70
2021/10/27 05:32:42;;;;;;;119.53;71.35;;;6.60;99.90;;;;;;5055174;28;20020;-69
2021/10/27 05:35:08;;;;;;;115.47;72.22;;;6.70;99.90;;;;;;5073651;28;20031;-71
2021/10/27 05:37:34;;;;;;;111.07;70.30;;;6.80;99.90;;;;;;5055408;28;20515;-71
2021/10/27 05:40:00;;;;;;;104.65;67.28;;;6.80;99.90;;;;;;5072941;28;20146;-70
2021/10/27 05:42:28;;;;;;;95.82;61.55;;;6.90;99.90;;;;;;5073063;28;20024;-70
2021/10/27 05:44:56;;;;;;;97.82;60.42;;;6.90;99.90;;;;;;5073011;28;20024;-68
2021/10/27 05:47:22;;;;;;;99.07;61.72;;;7.00;99.90;;;;;;5072679;28;20025;-69
2021/10/27 05:49:54;;;;;;;97.95;60.22;;;7.00;99.90;;;;;;5055225;28;20082;-67
2021/10/27 06:00:04;;;;;;;115.95;73.32;;;7.00;99.90;;;;;;5073002;28;20293;-70
2021/10/27 06:02:30;;;;;;;118.05;73.05;;;7.00;99.90;;;;;;5074133;28;20027;-70
2021/10/27 06:04:55;;;;;;;132.05;76.05;;;7.10;99.90;;;;;;5054776;28;20024;-69
2021/10/27 06:07:22;;;;;;;109.97;69.85;;;7.10;99.90;;;;;;5072752;28;20389;-71
2021/10/27 06:09:49;;;;;;;127.65;73.80;;;7.00;99.90;;;;;;5054093;28;20040;-69
2021/10/27 06:12:17;;;;;;;115.75;74.20;;;7.00;99.90;;;;;;5072227;28;20044;-69
2021/10/27 06:14:44;;;;;;;122.55;75.72;;;7.00;99.90;;;;;;5072836;28;20029;-70
2021/10/27 06:17:10;;;;;;;126.13;77.85;;;7.00;99.90;;;;;;5054620;28;20029;-67
2021/10/27 06:19:36;;;;;;;117.57;72.22;;;7.00;99.90;;;;;;5054432;28;20032;-67
2021/10/27 06:22:02;;;;;;;114.05;71.47;;;7.00;99.90;;;;;;5054154;28;20036;-70
2021/10/27 06:24:30;;;;;;;112.65;73.45;;;7.00;99.90;;;;;;5054537;28;20028;-69
2021/10/27 06:26:55;;;;;;;124.25;76.25;;;7.10;99.90;;;;;;5072654;28;20025;-69
2021/10/27 06:29:27;;;;;;;111.18;68.95;;;7.20;99.90;;;;;;5072582;28;20029;-70
2021/10/27 06:32:40;;;;;;;100.68;61.42;;;7.30;99.90;;;;;;5054682;28;20063;-70
2021/10/27 06:34:46;;;;;;;106.60;68.13;;;7.50;99.90;;;;;;5061507;28;20040;-67
2021/10/27 06:48:04;;;;;;;98.28;62.40;;;7.40;99.90;;;;;;5072232;28;20401;-69
2021/10/27 06:50:30;;;;;;;95.45;61.13;;;7.40;99.90;;;;;;5054594;28;20032;-67
2021/10/27 06:52:55;;;;;;;99.30;60.63;;;7.50;99.90;;;;;;5072554;28;20461;-71
2021/10/27 06:55:21;;;;;;;97.82;60.45;;;7.60;99.90;;;;;;5072472;28;20033;-66
2021/10/27 06:57:47;;;;;;;99.43;62.25;;;7.60;99.90;;;;;;5072462;28;20025;-70
2021/10/27 07:00:21;;;;;;;90.28;57.30;;;7.70;99.90;;;;;;5075755;28;20048;-69
2021/10/27 07:16:13;;;;;;;91.30;58.22;;;8.00;99.90;;;;;;5075922;28;20608;-70
2021/10/27 07:18:40;;;;;;;91.32;59.55;;;8.00;99.90;;;;;;5075808;28;20044;-70
2021/10/27 07:21:05;;;;;;;97.93;64.22;;;8.10;99.90;;;;;;5075556;28;20029;-69
2021/10/27 07:23:33;;;;;;;91.95;57.45;;;8.20;99.90;;;;;;5057572;28;20021;-71
2021/10/27 07:26:00;;;;;;;84.38;53.22;;;;;;;;;;5057734;28;20468;-70
2021/10/27 07:28:27;;;;;;;82.50;51.72;;;;;;;;;;5075737;28;20107;-69
2021/10/27 07:30:54;;;;;;;79.75;48.67;;;;;;;;;;5057529;28;20435;-69
2021/10/27 07:33:21;;;;;;;75.28;48.03;;;;;;;;;;5075011;28;20452;-68
2021/10/27 07:35:54;;;;;;;74.72;50.03;;;;;;;;;;5075610;28;20020;-68
2021/10/27 07:41:06;;;;;;;83.18;51.30;;;;;;;;;;5075399;28;20474;-69
2021/10/27 07:43:33;;;;;;;79.60;50.22;;;;;;;;;;5075439;28;20052;-68
2021/10/27 07:46:01;;;;;;;78.75;50.67;;;;;;;;;;5075436;28;20078;-69
2021/10/27 07:48:27;;;;;;;73.80;47.97;;;;;;;;;;5075365;28;20071;-69
2021/10/27 07:50:54;;;;;;;70.85;46.80;;;;;;;;;;5057348;28;20465;-69
2021/10/27 07:53:22;;;;;;;96.60;55.67;;;;;;;;;;5057226;28;20492;-68
2021/10/27 07:55:50;;;;;;;73.97;47.25;;;;;;;;;;5075220;28;20021;-69
2021/10/27 07:58:17;;;;;;;70.45;46.45;;;;;;;;;;5075144;28;20021;-69
2021/10/27 08:00:44;;;;;;;80.88;48.65;;;;;;;;;;5057270;28;20577;-69
2021/10/27 08:03:11;;;;;;;77.30;48.25;;;;;;;;;;5057103;28;20108;-68
2021/10/27 08:05:40;;;;;;;67.97;45.63;;;;;;;;;;5075032;28;20047;-68
2021/10/27 08:08:07;;;;;;;78.32;48.17;;;;;;;;;;5056978;28;20069;-69
2021/10/27 08:10:33;;;;;;;73.20;46.55;;;;;;;;;;5056333;28;20056;-69
2021/10/27 08:12:59;;;;;;;72.72;41.70;;;;;;;;;;5074931;28;20495;-70
2021/10/27 08:15:26;;;;;;;67.45;43.30;;;;;;;;;;5056849;28;20039;-69
2021/10/27 08:17:53;;;;;;;62.75;41.72;;;;;;;;;;5074765;28;20028;-69
2021/10/27 08:20:20;;;;;;;68.80;44.05;;;;;;;;;;5074778;28;20045;-68
2021/10/27 08:22:51;;;;;;;68.75;44.00;;;;;;;;;;5074758;28;20017;-68
2021/10/27 08:25:43;;;;;;;64.95;43.17;;;;;;;;;;5062442;28;20077;-68
2021/10/27 08:28:07;;;;;;;61.58;42.35;;;;;;;;;;5074726;28;20059;-69
2021/10/27 08:30:40;;;;;;;70.90;44.17;;;;;;;;;;5074415;28;20358;-69
2021/10/27 08:33:07;;;;;;;65.22;42.08;;;;;;;;;;5056436;28;20366;-69
2021/10/27 08:35:35;;;;;;;78.38;49.08;;;;;;;;;;5056338;28;20115;-68
2021/10/27 08:38:02;;;;;;;65.57;43.25;;;;;;;;;;5074139;28;20020;-67
2021/10/27 08:40:28;;;;;;;62.50;38.58;;;;;;;;;;5056093;28;20055;-69
2021/10/27 08:42:56;;;;;;;58.67;40.45;;;;;;;;;;5074188;28;20024;-69
2021/10/27 08:45:22;;;;;;;59.70;39.35;;;;;;;;;;5074140;28;20028;-69
2021/10/27 08:47:51;;;;;;;68.53;42.42;;;;;;;;;;5055959;28;20020;-70
2021/10/27 08:50:18;;;;;;;62.50;41.35;;;;;;;;;;5073747;28;20073;-68
2021/10/27 08:52:44;;;;;;;58.58;38.40;;;;;;;;;;5074038;28;20024;-69
2021/10/27 08:55:13;;;;;;;128.27;76.15;;;;;;;;;;5072319;28;20029;-67
2021/10/27 08:57:40;;;;;;;86.30;52.22;;;;;;;;;;5073096;28;20032;-70
2021/10/27 09:16:30;;;;;;;57.33;36.65;;;;;;;;;;5073480;28;20392;-72
2021/10/27 09:47:28;;;;;;;59.80;38.60;;;12.60;99.90;;;;;;5068111;28;20103;-70
2021/10/27 10:06:31;;;;;;;44.90;31.05;;;14.30;99.90;;;;;;5071922;28;20029;-68
2021/10/27 10:08:57;;;;;;;99.68;55.20;;;14.40;98.80;;;;;;5046566;28;20457;-70
2021/10/27 10:11:26;;;;;;;42.45;28.75;;;14.50;99.70;;;;;;5032756;28;20071;-68
2021/10/27 10:14:04;;;;;;;44.75;28.35;;;14.60;97.20;;;;;;5032872;28;20021;-69
2021/10/27 10:16:33;;;;;;;45.22;27.60;;;15.00;96.00;;;;;;5032713;28;20030;-71
2021/10/27 10:19:06;;;;;;;39.58;27.10;;;15.40;94.00;;;;;;5032638;28;20071;-73
2021/10/27 10:21:39;;;;;;;37.50;27.65;;;15.60;92.90;;;;;;5032406;28;20441;-71
2021/10/27 10:24:17;;;;;;;43.05;27.70;;;15.80;92.20;;;;;;5031323;28;20030;-70
2021/10/27 10:26:45;;;;;;;48.92;28.85;;;16.70;91.80;;;;;;5033026;28;20033;-69
2021/10/27 10:29:39;;;;;;;41.25;27.70;;;16.70;90.30;;;;;;5032205;28;20370;-71
2021/10/27 10:32:39;;;;;;;39.20;27.85;;;17.10;87.20;;;;;;5032706;28;20029;-72
2021/10/27 10:35:21;;;;;;;41.97;28.13;;;17.80;84.90;;;;;;4939845;29;20508;-70
2021/10/27 10:43:17;;;;;;;95.97;55.70;;;18.70;79.70;;;;;;4955382;28;20065;-68
2021/10/27 10:59:49;;;;;;;30.13;21.33;;;19.50;71.70;;;;;;4954810;28;20315;-69
2021/10/27 11:25:06;;;;;;;32.00;21.48;;;16.90;74.50;;;;;;5033858;28;20033;-70
2021/10/27 11:41:27;;;;;;;30.27;21.63;;;18.10;70.30;;;;;;5037042;28;20033;-69
2021/10/27 11:46:27;;;;;;;31.52;21.10;;;16.50;75.80;;;;;;5035168;28;20033;-67
2021/10/27 11:48:57;;;;;;;29.13;20.13;;;16.10;78.90;;;;;;5035401;28;20466;-68
2021/10/27 11:51:23;;;;;;;30.55;20.05;;;15.70;78.80;;;;;;5035235;28;20037;-67
2021/10/27 11:53:49;;;;;;;25.83;18.83;;;15.30;79.90;;;;;;5035186;28;20028;-67
2021/10/27 11:56:21;;;;;;;27.17;17.73;;;15.10;80.80;;;;;;5033924;28;20068;-69
2021/10/27 11:58:56;;;;;;;28.88;18.60;;;15.00;80.70;;;;;;5034895;28;20478;-66
2021/10/27 12:01:37;;;;;;;24.25;16.08;;;14.80;82.00;;;;;;5035097;28;20431;-67
2021/10/27 12:04:10;;;;;;;29.45;18.58;;;14.80;80.90;;;;;;5033661;28;20449;-68
2021/10/27 12:06:40;;;;;;;25.50;17.88;;;14.80;80.90;;;;;;5033702;28;20025;-66
2021/10/27 12:09:20;;;;;;;30.85;19.30;;;14.90;81.30;;;;;;5055762;28;20043;-67
2021/10/27 12:14:44;;;;;;;28.20;18.20;;;14.80;83.40;;;;;;5094545;28;20056;-67
2021/10/27 12:17:24;;;;;;;25.33;17.27;;;14.60;83.10;;;;;;5077001;28;20051;-69
2021/10/27 12:19:51;;;;;;;29.90;19.27;;;14.60;81.30;;;;;;5094524;28;20024;-66
2021/10/27 12:22:22;;;;;;;28.02;19.13;;;15.00;81.20;;;;;;5094914;28;20430;-67
2021/10/27 12:25:01;;;;;;;27.58;19.17;;;15.00;79.90;;;;;;5094647;28;20469;-67
2021/10/27 12:27:38;;;;;;;24.17;17.70;;;14.80;80.80;;;;;;5076684;28;20450;-67
2021/10/27 12:30:10;;;;;;;26.88;17.20;;;14.80;81.30;;;;;;5094961;28;20085;-67
2021/10/27 12:32:54;;;;;;;23.48;17.35;;;14.80;80.60;;;;;;5094847;28;20093;-69
2021/10/27 12:35:27;;;;;;;25.35;18.20;;;15.00;79.10;;;;;;5076467;28;20034;-69
2021/10/27 12:38:21;;;;;;;27.77;19.35;;;15.10;78.80;;;;;;5094749;28;20031;-68
2021/10/27 12:40:49;;;;;;;28.13;19.52;;;14.90;80.00;;;;;;5094459;28;20096;-69
2021/10/27 12:43:22;;;;;;;30.13;19.88;;;14.80;81.10;;;;;;5094657;28;20037;-68
2021/10/27 12:45:51;;;;;;;36.05;21.25;;;14.70;81.00;;;;;;5094634;28;20107;-68
2021/10/27 12:48:20;;;;;;;34.83;23.27;;;14.70;83.00;;;;;;5094471;28;20118;-68
2021/10/27 12:50:57;;;;;;;33.30;22.85;;;14.60;83.00;;;;;;5094471;28;20054;-66
2021/10/27 12:53:33;;;;;;;34.05;22.67;;;14.70;82.80;;;;;;5094505;28;20028;-67
2021/10/27 12:56:17;;;;;;;37.42;24.55;;;14.80;83.70;;;;;;5094644;28;20032;-66
2021/10/27 12:58:50;;;;;;;39.75;23.85;;;14.60;84.70;;;;;;5094341;28;20080;-67
2021/10/27 13:01:36;;;;;;;29.85;22.23;;;14.80;84.10;;;;;;5094271;28;20103;-67
2021/10/27 13:09:35;;;;;;;34.63;22.13;;;15.30;81.40;;;;;;5093777;28;20047;-67
2021/10/27 13:31:13;;;;;;;27.55;19.58;;;14.10;82.40;;;;;;5072856;28;20098;-67
2021/10/27 13:33:39;;;;;;;24.23;20.33;;;14.20;81.50;;;;;;5055325;28;20450;-67
2021/10/27 13:36:05;;;;;;;28.92;20.42;;;14.20;81.80;;;;;;5055312;28;20036;-68
2021/10/27 13:38:34;;;;;;;31.75;20.75;;;14.10;83.20;;;;;;5073283;28;20069;-70
2021/10/27 13:41:02;;;;;;;69.50;22.40;;;14.10;83.80;;;;;;5073057;28;20032;-69
2021/10/27 13:43:39;;;;;;;33.55;21.05;;;14.00;84.30;;;;;;5072652;28;20052;-69
2021/10/27 14:07:51;;;;;;;26.38;17.73;;;13.60;83.60;;;;;;5072193;28;20063;-67
2021/10/27 14:10:32;;;;;;;26.90;19.75;;;13.50;84.70;;;;;;5072672;28;20508;-70
2021/10/27 14:13:11;;;;;;;34.42;22.42;;;13.50;84.50;;;;;;5072934;28;20024;-66
2021/10/27 15:21:30;;;;;;;73.72;42.58;;;;;;;;;;5075337;28;20048;-70
2021/10/27 15:33:03;;;;;;;140.57;78.55;;;;;;;;;;5073928;28;20032;-68
2021/10/27 15:41:09;;;;;;;234.48;117.45;;;;;;;;;;5075564;28;20404;-69
2021/10/27 15:51:21;;;;;;;129.30;64.03;;;;;;;;;;5075194;28;20401;-69
2021/10/27 15:53:47;;;;;;;114.55;63.60;;;;;;;;;;5075281;28;20016;-68
2021/10/27 15:56:14;;;;;;;116.47;65.57;;;;;;;;;;5057201;28;20056;-68
2021/10/27 15:58:40;;;;;;;132.32;68.90;;;;;;;;;;5057155;28;20051;-68
2021/10/27 16:01:06;;;;;;;128.27;70.72;;;;;;;;;;5074847;28;20063;-68
2021/10/27 16:03:32;;;;;;;147.60;84.05;;;;;;;;;;5074750;28;20417;-69
2021/10/27 16:05:59;;;;;;;140.32;71.72;;;;;;;;;;5075232;28;20021;-68
2021/10/27 16:08:27;;;;;;;114.57;56.90;;;;;;;;;;5075018;28;20067;-67
2021/10/27 16:10:54;;;;;;;88.20;47.80;;;;;;;;;;5074490;28;20457;-67
2021/10/27 16:13:20;;;;;;;98.38;53.80;;;;;;;;;;5074931;28;20118;-68
2021/10/27 16:18:23;;;;;;;87.55;46.42;;;;;;;;;;5074992;28;20032;-68
2021/10/27 16:20:49;;;;;;;118.55;62.85;;;;;;;;;;5074681;28;20020;-69
2021/10/27 16:23:16;;;;;;;159.80;94.18;;;;;;;;;;5074877;28;20020;-67
2021/10/27 16:25:42;;;;;;;124.63;72.43;;;;;;;;;;5074977;28;20020;-68
2021/10/27 16:28:08;;;;;;;156.38;94.88;;;;;;;;;;5056830;28;20047;-67
2021/10/27 16:30:35;;;;;;;103.28;56.72;;;;;;;;;;5056537;28;20032;-68
2021/10/27 16:33:02;;;;;;;110.10;54.20;;;;;;;;;;5075046;28;20449;-68
2021/10/27 16:35:28;;;;;;;117.93;60.97;;;;;;;;;;5074788;28;20024;-69
2021/10/27 16:37:55;;;;;;;120.43;56.47;;;;;;;;;;5074717;28;20020;-67
2021/10/27 16:40:21;;;;;;;118.03;56.33;;;;;;;;;;5056241;28;20103;-69
2021/10/27 16:42:48;;;;;;;96.65;49.00;;;;;;;;;;5074016;28;20377;-68
2021/10/27 16:45:18;;;;;;;94.65;51.70;;;;;;;;;;5074343;28;20020;-68
2021/10/27 16:47:45;;;;;;;110.30;54.22;;;;;;;;;;5056279;28;20499;-68
2021/10/27 16:50:13;;;;;;;99.50;53.55;;;;;;;;;;5074230;28;20055;-68
2021/10/27 16:52:39;;;;;;;96.07;50.67;;;;;;;;;;5056044;28;20078;-68
2021/10/27 16:55:07;;;;;;;87.30;51.45;;;;;;;;;;5056223;28;20029;-69
2021/10/27 16:57:33;;;;;;;73.05;41.22;;;;;;;;;;5074117;28;20060;-68
2021/10/27 17:00:00;;;;;;;78.18;38.63;;;;;;;;;;5074050;28;20028;-68
2021/10/27 17:02:26;;;;;;;74.75;39.20;;;;;;;;;;5073962;28;20127;-69
2021/10/27 17:04:52;;;;;;;77.85;38.35;;;;;;;;;;5073756;28;20443;-67
2021/10/27 17:07:19;;;;;;;70.93;36.90;;;;;;;;;;5073944;28;20073;-68
2021/10/27 17:09:45;;;;;;;76.25;36.72;;;;;;;;;;5073574;28;20052;-68
2021/10/27 17:12:11;;;;;;;70.88;36.75;;;;;;;;;;5074197;28;20031;-68
2021/10/27 17:14:38;;;;;;;60.97;34.63;;;;;;;;;;5056149;28;20025;-69
2021/10/27 17:17:05;;;;;;;65.50;37.92;;;;;;;;;;5074022;28;20024;-68
2021/10/27 17:19:32;;;;;;;69.25;39.83;;;;;;;;;;5073904;28;20033;-68
2021/10/27 17:21:58;;;;;;;75.28;38.58;;;;;;;;;;5073841;28;20457;-67
2021/10/27 17:24:26;;;;;;;73.53;42.00;;;;;;;;;;5073865;28;20060;-68
2021/10/27 17:26:56;;;;;;;71.32;42.55;;;;;;;;;;5073530;28;20082;-68
2021/10/27 17:29:23;;;;;;;72.85;45.00;;;;;;;;;;5073524;28;20025;-68
2021/10/27 17:31:49;;;;;;;87.25;47.70;;;;;;;;;;5055568;28;20115;-69
2021/10/27 17:34:15;;;;;;;93.25;45.92;;;;;;;;;;5073436;28;20054;-67
2021/10/27 17:36:42;;;;;;;89.88;45.72;;;;;;;;;;5073428;28;20028;-70
2021/10/27 17:39:08;;;;;;;86.63;45.65;;;;;;;;;;5055437;28;20115;-69
2021/10/27 17:41:36;;;;;;;89.30;49.97;;;;;;;;;;5073124;28;20036;-69
2021/10/27 17:44:04;;;;;;;88.88;51.65;;;;;;;;;;5072836;28;20039;-70
2021/10/27 17:46:41;;;;;;;88.50;48.50;;;;;;;;;;5073246;28;20461;-69
2021/10/27 17:49:13;;;;;;;69.82;43.45;;;;;;;;;;5073310;28;20393;-70
2021/10/27 17:51:48;;;;;;;129.95;65.97;;;;;;;;;;5073274;28;20482;-71
2021/10/27 17:59:46;;;;;;;109.07;57.80;;;;;;;;;;5072881;28;20083;-69
2021/10/27 18:02:12;;;;;;;124.25;66.90;;;;;;;;;;5073007;28;20059;-70